Time;durP1;ratioP1;P1;durP2;ratioP2;P2;SDS_P1;SDS_P2;PMS_P1;PMS_P2;Temp;Humidity;BMP_temperature;BMP_pressure;BME280_temperature;BME280_humidity;BME280_pressure;Samples;Min_cycle;Max_cycle;Signal;HPM_P1;HPM_P2
2022/10/17 00:00:28;;;;;;;2.30;2.20;;;12.10;99.90;;;;;;5011211;28;20227;-90
2022/10/17 00:02:54;;;;;;;2.40;2.20;;;12.20;99.90;;;;;;4980967;28;20677;-92
2022/10/17 00:05:20;;;;;;;12.63;3.00;;;12.20;99.90;;;;;;4996923;28;20739;-93
2022/10/17 00:07:46;;;;;;;3.77;2.10;;;12.30;99.90;;;;;;4971931;28;20192;-91
2022/10/17 00:10:12;;;;;;;5.97;2.40;;;12.30;99.90;;;;;;4997055;28;20224;-91
2022/10/17 00:12:38;;;;;;;6.37;2.77;;;12.40;99.90;;;;;;4998341;28;20311;-88
2022/10/17 00:15:06;;;;;;;2.43;2.20;;;12.40;99.90;;;;;;4988994;28;20232;-91
2022/10/17 00:17:32;;;;;;;2.20;1.60;;;12.40;99.90;;;;;;4972059;28;20278;-90
2022/10/17 00:19:59;;;;;;;3.77;1.80;;;12.50;99.90;;;;;;4988064;28;20196;-89
2022/10/17 00:22:26;;;;;;;3.27;2.93;;;12.60;99.90;;;;;;4987224;28;20673;-93
2022/10/17 00:24:52;;;;;;;5.93;2.33;;;12.70;99.90;;;;;;4977181;28;20582;-92
2022/10/17 00:27:18;;;;;;;6.87;2.97;;;12.90;99.90;;;;;;4996530;28;20240;-90
2022/10/17 00:29:48;;;;;;;3.50;1.77;;;13.00;99.90;;;;;;4975550;28;20231;-88
2022/10/17 00:32:14;;;;;;;2.03;1.53;;;13.00;99.90;;;;;;4997592;28;20587;-92
2022/10/17 00:34:40;;;;;;;3.67;1.87;;;13.10;99.90;;;;;;4988211;28;20199;-91
2022/10/17 00:37:05;;;;;;;6.53;1.73;;;13.20;99.90;;;;;;4988824;28;20251;-90
2022/10/17 00:39:31;;;;;;;4.43;1.13;;;13.30;99.90;;;;;;4987660;28;20698;-90
2022/10/17 00:41:57;;;;;;;3.90;1.87;;;13.30;99.90;;;;;;4988178;28;20222;-89
2022/10/17 00:44:28;;;;;;;3.00;1.77;;;13.50;99.90;;;;;;4987567;28;20220;-91
2022/10/17 00:46:55;;;;;;;2.23;2.03;;;13.60;99.90;;;;;;4988050;28;20230;-90
2022/10/17 00:49:23;;;;;;;5.87;1.60;;;13.70;99.90;;;;;;4936461;28;20275;-89
2022/10/17 00:51:53;;;;;;;2.23;1.80;;;13.70;99.90;;;;;;4952668;28;20263;-89
2022/10/17 00:54:24;;;;;;;6.23;2.20;;;13.70;99.90;;;;;;4983685;28;20223;-92
2022/10/17 00:56:50;;;;;;;2.00;1.80;;;13.80;99.90;;;;;;4991305;28;20219;-90
2022/10/17 00:59:18;;;;;;;3.87;2.00;;;13.80;99.90;;;;;;4987066;28;20207;-92
2022/10/17 01:01:55;;;;;;;3.13;1.50;;;13.80;99.90;;;;;;4988486;28;20267;-92
2022/10/17 01:04:21;;;;;;;4.07;1.90;;;13.80;99.90;;;;;;4988027;28;20243;-91
2022/10/17 01:06:47;;;;;;;2.33;2.13;;;13.80;99.90;;;;;;4988596;28;20610;-91
2022/10/17 01:09:13;;;;;;;2.37;1.77;;;13.90;99.90;;;;;;4999071;28;20238;-89
2022/10/17 01:11:51;;;;;;;6.60;2.57;;;13.90;99.90;;;;;;4996404;28;20537;-92
2022/10/17 01:14:36;;;;;;;2.40;1.57;;;13.90;99.90;;;;;;4995948;28;20189;-91
2022/10/17 01:17:40;;;;;;;1.60;1.50;;;14.10;99.90;;;;;;4998365;28;20180;-93
2022/10/17 01:20:40;;;;;;;6.53;1.73;;;14.10;99.90;;;;;;4976156;28;20191;-93
2022/10/17 01:23:23;;;;;;;3.30;1.90;;;14.10;99.90;;;;;;5003513;28;20330;-90
2022/10/17 01:26:33;;;;;;;5.33;2.10;;;14.20;99.90;;;;;;4988706;28;20188;-90
2022/10/17 01:29:17;;;;;;;3.47;1.77;;;14.20;99.90;;;;;;4980661;28;20215;-91
2022/10/17 01:31:47;;;;;;;3.53;2.30;;;14.30;99.90;;;;;;4989130;28;20608;-91
2022/10/17 01:34:21;;;;;;;2.83;2.63;;;14.20;99.90;;;;;;4987142;28;20314;-93
2022/10/17 01:36:56;;;;;;;5.40;2.77;;;14.20;99.90;;;;;;4987627;28;20220;-90
2022/10/17 01:39:45;;;;;;;6.40;2.50;;;14.30;99.90;;;;;;5002992;28;20255;-90
2022/10/17 01:42:43;;;;;;;2.30;1.97;;;14.20;99.90;;;;;;4987451;28;20230;-89
2022/10/17 01:45:18;;;;;;;6.67;2.73;;;14.20;99.90;;;;;;4986213;28;20246;-90
2022/10/17 01:47:46;;;;;;;5.03;2.53;;;14.20;99.90;;;;;;4986025;28;20231;-92
2022/10/17 01:50:31;;;;;;;4.43;2.60;;;14.10;99.90;;;;;;4986157;28;20188;-90
2022/10/17 01:53:12;;;;;;;3.33;3.00;;;14.00;99.90;;;;;;4987990;28;20390;-87
2022/10/17 01:55:43;;;;;;;7.40;2.73;;;14.00;99.90;;;;;;4987652;28;20231;-93
2022/10/17 01:58:19;;;;;;;5.27;2.30;;;14.00;99.90;;;;;;5001744;28;20228;-90
2022/10/17 02:00:46;;;;;;;2.93;2.50;;;13.90;99.90;;;;;;5002755;28;20228;-92
2022/10/17 02:03:17;;;;;;;5.00;2.57;;;13.90;99.90;;;;;;4985971;28;20277;-93
2022/10/17 02:05:43;;;;;;;3.00;2.50;;;13.90;99.90;;;;;;5002428;28;20243;-91
2022/10/17 02:08:09;;;;;;;4.67;2.83;;;13.90;99.90;;;;;;4970555;28;20546;-92
2022/10/17 02:10:53;;;;;;;3.33;2.40;;;13.90;99.90;;;;;;4987641;28;20235;-93
2022/10/17 02:13:25;;;;;;;2.50;2.30;;;13.80;99.90;;;;;;4985439;28;20738;-93
2022/10/17 02:16:09;;;;;;;2.93;2.70;;;13.80;99.90;;;;;;4986317;28;20255;-92
2022/10/17 02:19:06;;;;;;;3.23;2.10;;;13.80;99.90;;;;;;4986420;28;20227;-93
2022/10/17 02:21:50;;;;;;;3.47;2.97;;;13.80;99.90;;;;;;4993012;28;20227;-94
2022/10/17 02:24:37;;;;;;;3.27;2.97;;;13.70;99.90;;;;;;4986812;28;20236;-89
2022/10/17 02:27:15;;;;;;;4.30;2.53;;;13.70;99.90;;;;;;5002290;28;20220;-92
2022/10/17 02:29:53;;;;;;;5.50;2.53;;;13.70;99.90;;;;;;5002456;28;20298;-92
2022/10/17 02:32:26;;;;;;;9.27;3.43;;;13.70;99.90;;;;;;4987027;28;20179;-92
2022/10/17 02:34:55;;;;;;;6.20;3.07;;;13.70;99.90;;;;;;4986657;28;20760;-87
2022/10/17 02:37:26;;;;;;;3.43;2.47;;;13.70;99.90;;;;;;4986811;28;20224;-93
2022/10/17 02:39:54;;;;;;;6.23;2.70;;;13.70;99.90;;;;;;4984671;28;20314;-92
2022/10/17 02:42:22;;;;;;;5.53;2.67;;;13.70;99.90;;;;;;4984886;28;20701;-90
2022/10/17 02:44:48;;;;;;;3.97;2.27;;;13.70;99.90;;;;;;4969823;28;20207;-91
2022/10/17 02:47:20;;;;;;;5.47;2.33;;;13.70;99.90;;;;;;4984576;28;20247;-91
2022/10/17 02:49:54;;;;;;;5.27;2.70;;;13.70;99.90;;;;;;4987121;28;20199;-91
2022/10/17 02:52:23;;;;;;;3.10;2.80;;;13.70;99.90;;;;;;4986138;28;20231;-93
2022/10/17 02:54:59;;;;;;;4.83;2.83;;;13.70;99.90;;;;;;4986322;28;20587;-90
2022/10/17 02:57:48;;;;;;;4.40;3.10;;;13.60;99.90;;;;;;5001642;28;20557;-93
2022/10/17 03:00:16;;;;;;;11.37;3.37;;;13.60;99.90;;;;;;5005228;28;20227;-91
2022/10/17 03:02:45;;;;;;;2.83;2.47;;;13.60;99.90;;;;;;4956958;28;20678;-90
2022/10/17 03:05:23;;;;;;;3.40;2.53;;;13.60;99.90;;;;;;4990085;28;20713;-92
2022/10/17 03:07:49;;;;;;;4.63;3.20;;;13.60;99.90;;;;;;4990263;28;20180;-90
2022/10/17 03:10:15;;;;;;;4.77;2.73;;;13.60;99.90;;;;;;4989689;28;20215;-90
2022/10/17 03:12:41;;;;;;;3.03;2.63;;;13.60;99.90;;;;;;4972660;28;20732;-89
2022/10/17 03:15:07;;;;;;;4.17;3.33;;;13.70;99.90;;;;;;4972131;28;20227;-92
2022/10/17 03:17:34;;;;;;;2.50;2.33;;;13.60;99.90;;;;;;4971834;28;20215;-88
2022/10/17 03:20:00;;;;;;;4.13;3.10;;;13.70;99.90;;;;;;4988727;28;20199;-90
2022/10/17 03:22:26;;;;;;;3.83;3.13;;;13.70;99.90;;;;;;4988916;28;20646;-90
2022/10/17 03:24:52;;;;;;;5.20;2.97;;;13.70;99.90;;;;;;4972686;28;20240;-91
2022/10/17 03:27:17;;;;;;;3.83;3.33;;;13.70;99.90;;;;;;4989156;28;20315;-92
2022/10/17 03:29:43;;;;;;;3.63;3.33;;;13.70;99.90;;;;;;4972711;28;20238;-89
2022/10/17 03:32:09;;;;;;;7.77;3.67;;;13.70;99.90;;;;;;5004922;28;20184;-92
2022/10/17 03:34:35;;;;;;;4.70;3.07;;;13.80;99.90;;;;;;5005125;28;20192;-93
2022/10/17 03:37:00;;;;;;;7.13;3.13;;;13.70;99.90;;;;;;4988045;28;20220;-91
2022/10/17 03:39:26;;;;;;;9.87;3.73;;;13.80;99.90;;;;;;4972191;28;20240;-89
2022/10/17 03:41:52;;;;;;;4.13;3.17;;;13.80;99.90;;;;;;4956340;28;20220;-91
2022/10/17 03:44:17;;;;;;;3.77;2.73;;;13.80;99.90;;;;;;4972123;28;20192;-91
2022/10/17 03:46:43;;;;;;;4.00;3.53;;;13.90;99.90;;;;;;4988497;28;20554;-90
2022/10/17 03:49:09;;;;;;;11.70;4.53;;;13.90;99.90;;;;;;4971627;28;20234;-89
2022/10/17 03:51:35;;;;;;;6.50;4.47;;;14.00;99.90;;;;;;4987587;28;20223;-90
2022/10/17 03:54:01;;;;;;;6.17;4.30;;;14.00;99.90;;;;;;4987997;28;20243;-89
2022/10/17 03:56:26;;;;;;;4.33;3.00;;;14.10;99.90;;;;;;4955503;28;20216;-91
2022/10/17 03:58:53;;;;;;;8.50;4.67;;;14.10;99.90;;;;;;4989550;28;20307;-90
2022/10/17 04:01:20;;;;;;;8.60;4.53;;;14.10;99.90;;;;;;4989044;28;20223;-89
2022/10/17 04:03:50;;;;;;;6.03;4.00;;;14.20;99.90;;;;;;4987255;28;20216;-91
2022/10/17 04:06:16;;;;;;;5.67;4.10;;;14.20;99.90;;;;;;4988266;28;20227;-91
2022/10/17 04:08:42;;;;;;;8.77;4.53;;;14.30;99.90;;;;;;4955108;28;20220;-88
2022/10/17 04:11:12;;;;;;;7.00;5.87;;;14.30;99.90;;;;;;4970528;28;20188;-92
2022/10/17 04:13:38;;;;;;;6.27;4.70;;;14.30;99.90;;;;;;4988710;28;20192;-89
2022/10/17 04:16:06;;;;;;;10.40;5.80;;;14.30;99.90;;;;;;4987582;28;20235;-91
2022/10/17 04:18:32;;;;;;;6.60;4.07;;;14.30;99.90;;;;;;4987173;28;20236;-93
2022/10/17 04:21:01;;;;;;;8.83;5.33;;;14.20;99.90;;;;;;4955070;28;20351;-88
2022/10/17 04:23:27;;;;;;;8.57;4.70;;;14.20;99.90;;;;;;4988326;28;20274;-91
2022/10/17 04:25:56;;;;;;;6.67;4.20;;;14.20;99.90;;;;;;4956003;28;20188;-90
2022/10/17 04:28:23;;;;;;;8.27;5.20;;;14.20;99.90;;;;;;4986944;28;20220;-89
2022/10/17 04:31:02;;;;;;;10.53;6.37;;;14.20;99.90;;;;;;4987368;28;20231;-88
2022/10/17 04:33:28;;;;;;;9.23;5.53;;;14.30;99.90;;;;;;4987967;28;20306;-86
2022/10/17 04:36:04;;;;;;;9.43;6.23;;;14.30;99.90;;;;;;4987364;28;20753;-89
2022/10/17 04:38:31;;;;;;;7.87;5.47;;;14.40;99.90;;;;;;4988285;28;20228;-90
2022/10/17 04:41:02;;;;;;;7.30;5.53;;;14.40;99.90;;;;;;4972002;28;20318;-91
2022/10/17 04:43:35;;;;;;;9.10;6.43;;;14.50;99.90;;;;;;4988725;28;20220;-90
2022/10/17 04:46:02;;;;;;;11.10;7.47;;;14.50;99.90;;;;;;4987345;28;20215;-88
2022/10/17 04:48:29;;;;;;;9.90;5.90;;;14.60;99.90;;;;;;5003515;28;20728;-90
2022/10/17 04:51:00;;;;;;;8.17;6.17;;;14.50;99.90;;;;;;5003505;28;20242;-88
2022/10/17 04:53:27;;;;;;;8.53;6.73;;;14.50;99.90;;;;;;4988028;28;20331;-87
2022/10/17 04:55:53;;;;;;;9.80;7.03;;;14.50;99.90;;;;;;4987735;28;20184;-88
2022/10/17 04:58:19;;;;;;;8.57;6.23;;;14.50;99.90;;;;;;4986866;28;20235;-88
2022/10/17 05:00:45;;;;;;;11.13;6.30;;;14.60;99.90;;;;;;4970585;28;20253;-88
2022/10/17 05:03:11;;;;;;;10.20;6.10;;;14.60;99.90;;;;;;5003764;28;20228;-89
2022/10/17 05:05:38;;;;;;;9.33;6.03;;;14.60;99.90;;;;;;4986963;28;20673;-90
2022/10/17 05:08:04;;;;;;;12.47;7.23;;;14.60;99.90;;;;;;4988014;28;20243;-90
2022/10/17 05:10:36;;;;;;;12.40;6.80;;;14.60;99.90;;;;;;4971043;28;20184;-90
2022/10/17 05:13:02;;;;;;;14.03;6.37;;;14.60;99.90;;;;;;5002893;28;21032;-92
2022/10/17 05:15:27;;;;;;;12.53;7.27;;;14.60;99.90;;;;;;4970286;28;20224;-89
2022/10/17 05:17:55;;;;;;;9.63;6.30;;;14.60;99.90;;;;;;4988057;28;20216;-89
2022/10/17 05:20:20;;;;;;;10.50;6.70;;;14.70;99.90;;;;;;4987793;28;20243;-89
2022/10/17 05:22:46;;;;;;;13.33;6.23;;;14.80;99.90;;;;;;4970722;28;20192;-88
2022/10/17 05:25:12;;;;;;;9.17;7.40;;;14.80;99.90;;;;;;4969898;28;20513;-88
2022/10/17 05:27:38;;;;;;;11.37;7.00;;;14.90;99.90;;;;;;4986885;28;20247;-89
2022/10/17 05:30:04;;;;;;;10.13;6.43;;;14.80;99.90;;;;;;4969590;28;20227;-90
2022/10/17 05:32:30;;;;;;;9.47;5.80;;;14.80;99.90;;;;;;4986385;28;20302;-90
2022/10/17 05:34:56;;;;;;;10.00;6.60;;;14.90;99.90;;;;;;4971066;28;20342;-90
2022/10/17 05:37:22;;;;;;;11.13;6.47;;;14.90;99.90;;;;;;5002321;28;20216;-89
2022/10/17 05:39:47;;;;;;;8.10;5.37;;;15.00;99.90;;;;;;4986055;28;20228;-89
2022/10/17 05:42:13;;;;;;;11.27;7.07;;;15.00;99.90;;;;;;4969834;28;20253;-88
2022/10/17 05:44:40;;;;;;;13.23;6.33;;;15.00;99.90;;;;;;4986886;28;20223;-91
2022/10/17 05:47:07;;;;;;;16.37;7.40;;;15.00;99.90;;;;;;4954106;28;20731;-89
2022/10/17 05:49:33;;;;;;;10.40;7.13;;;15.10;99.90;;;;;;4986771;28;20187;-91
2022/10/17 05:51:58;;;;;;;11.40;7.27;;;15.20;99.90;;;;;;5002646;28;20313;-89
2022/10/17 05:54:25;;;;;;;11.93;5.80;;;15.20;99.90;;;;;;5002901;28;20220;-91
2022/10/17 05:56:52;;;;;;;12.77;7.77;;;15.30;99.90;;;;;;4954246;28;21099;-90
2022/10/17 05:59:18;;;;;;;8.67;6.03;;;15.30;99.90;;;;;;4985554;28;20223;-89
2022/10/17 06:01:43;;;;;;;13.83;7.20;;;15.30;99.90;;;;;;4985877;28;20720;-91
2022/10/17 06:04:09;;;;;;;10.40;6.33;;;15.30;99.90;;;;;;4986312;28;20231;-89
2022/10/17 06:06:37;;;;;;;10.40;6.63;;;15.30;99.90;;;;;;4953949;28;20222;-87
2022/10/17 06:09:03;;;;;;;10.63;6.70;;;15.40;99.90;;;;;;4987184;28;20216;-91
2022/10/17 06:11:29;;;;;;;7.87;6.10;;;15.40;99.90;;;;;;4986924;28;20220;-92
2022/10/17 06:13:54;;;;;;;10.10;6.03;;;15.40;99.90;;;;;;5002514;28;20199;-89
2022/10/17 06:16:20;;;;;;;11.00;7.27;;;15.50;99.90;;;;;;4986497;28;20211;-90
2022/10/17 06:18:46;;;;;;;10.37;6.80;;;15.50;99.90;;;;;;5002002;28;20238;-90
2022/10/17 06:21:15;;;;;;;11.87;6.93;;;15.50;99.90;;;;;;4969947;28;20567;-88
2022/10/17 06:23:41;;;;;;;8.40;6.30;;;15.50;99.90;;;;;;4986507;28;20681;-90
2022/10/17 06:26:07;;;;;;;9.90;6.23;;;15.60;99.90;;;;;;4986020;28;20203;-89
2022/10/17 06:28:34;;;;;;;8.73;5.93;;;15.60;99.90;;;;;;4970354;28;20192;-89
2022/10/17 06:31:07;;;;;;;12.53;5.97;;;15.50;99.90;;;;;;4985760;28;20224;-89
2022/10/17 06:33:33;;;;;;;9.93;6.77;;;15.60;99.90;;;;;;4985680;28;20218;-90
2022/10/17 06:35:59;;;;;;;10.90;6.23;;;15.60;99.90;;;;;;4985250;28;20216;-92
2022/10/17 06:38:25;;;;;;;11.13;6.43;;;15.60;99.90;;;;;;4969260;28;20238;-91
2022/10/17 06:40:52;;;;;;;10.23;5.93;;;15.60;99.90;;;;;;5002188;28;20188;-89
2022/10/17 06:43:19;;;;;;;11.40;7.53;;;15.70;99.90;;;;;;4969190;28;20267;-90
2022/10/17 06:45:46;;;;;;;10.03;6.57;;;15.60;99.90;;;;;;4984169;28;20266;-92
2022/10/17 06:48:13;;;;;;;8.87;6.30;;;15.70;99.90;;;;;;4984800;28;20258;-90
2022/10/17 06:50:38;;;;;;;11.73;6.87;;;15.70;99.90;;;;;;4984945;28;20226;-89
2022/10/17 06:53:04;;;;;;;11.33;7.07;;;15.70;99.90;;;;;;4952630;28;20191;-89
2022/10/17 06:55:31;;;;;;;15.60;6.47;;;15.70;99.90;;;;;;5002525;28;20199;-90
2022/10/17 06:57:57;;;;;;;9.47;6.53;;;15.70;99.90;;;;;;4984744;28;20212;-89
2022/10/17 07:00:25;;;;;;;15.77;6.87;;;15.70;99.90;;;;;;4971102;28;20529;-91
2022/10/17 07:02:51;;;;;;;13.53;6.73;;;15.70;99.90;;;;;;4985318;28;20354;-90
2022/10/17 07:05:18;;;;;;;11.83;6.67;;;15.80;99.90;;;;;;5001936;28;20187;-92
2022/10/17 07:07:44;;;;;;;10.73;6.63;;;15.90;99.90;;;;;;4986510;28;20192;-88
2022/10/17 07:10:10;;;;;;;10.83;6.23;;;15.90;99.90;;;;;;4969599;28;20216;-91
2022/10/17 07:12:36;;;;;;;7.60;5.80;;;16.00;99.90;;;;;;4968501;28;20230;-88
2022/10/17 07:15:04;;;;;;;9.73;6.77;;;16.20;99.90;;;;;;4969054;28;20572;-90
2022/10/17 07:17:30;;;;;;;10.80;7.20;;;16.30;99.90;;;;;;4985534;28;20215;-90
2022/10/17 07:19:56;;;;;;;9.27;6.00;;;16.40;99.90;;;;;;4970112;28;20669;-91
2022/10/17 07:22:21;;;;;;;13.13;7.77;;;16.50;99.90;;;;;;4969922;28;20234;-91
2022/10/17 07:24:47;;;;;;;10.83;6.63;;;16.60;99.90;;;;;;5013502;28;20287;-92
2022/10/17 07:27:14;;;;;;;10.80;6.20;;;16.60;99.90;;;;;;4995584;28;20732;-91
2022/10/17 07:29:40;;;;;;;11.73;7.00;;;16.70;99.90;;;;;;4984164;28;20716;-89
2022/10/17 07:32:07;;;;;;;14.87;8.07;;;16.80;99.90;;;;;;4986312;28;20192;-90
2022/10/17 07:34:36;;;;;;;12.80;7.13;;;17.10;99.90;;;;;;5002182;28;20282;-92
2022/10/17 07:37:02;;;;;;;15.93;7.63;;;17.40;99.90;;;;;;4986773;28;20224;-91
2022/10/17 07:39:28;;;;;;;10.37;6.53;;;17.90;99.90;;;;;;4969178;28;20255;-91
2022/10/17 07:41:54;;;;;;;12.50;7.57;;;18.00;99.90;;;;;;4986599;28;20212;-90
2022/10/17 07:44:20;;;;;;;8.23;6.10;;;18.40;99.90;;;;;;4970235;28;20238;-90
2022/10/17 07:46:46;;;;;;;9.23;6.03;;;18.70;99.90;;;;;;4972936;28;20283;-91
2022/10/17 07:49:11;;;;;;;9.23;5.90;;;18.60;99.90;;;;;;4972447;28;20223;-92
2022/10/17 07:51:37;;;;;;;8.93;6.10;;;18.40;99.90;;;;;;4987972;28;20715;-92
2022/10/17 07:54:05;;;;;;;9.57;6.33;;;18.40;99.90;;;;;;4956214;28;20243;-92
2022/10/17 07:56:30;;;;;;;7.47;5.43;;;18.40;99.90;;;;;;4988499;28;20315;-92
2022/10/17 07:58:57;;;;;;;7.40;5.17;;;18.50;99.90;;;;;;4956481;28;20294;-91
2022/10/17 08:01:24;;;;;;;9.43;5.53;;;18.50;99.90;;;;;;4989709;28;20697;-92
2022/10/17 08:03:50;;;;;;;7.33;5.23;;;18.50;99.90;;;;;;4988072;28;20208;-93
2022/10/17 08:06:16;;;;;;;7.37;5.23;;;18.40;99.90;;;;;;4972607;28;20237;-91
2022/10/17 08:08:43;;;;;;;13.53;5.53;;;18.30;99.90;;;;;;4989897;28;20251;-93
2022/10/17 08:11:11;;;;;;;10.30;4.60;;;18.30;99.90;;;;;;4972156;28;20184;-88
2022/10/17 08:13:38;;;;;;;7.37;4.07;;;18.30;99.90;;;;;;4989373;28;20196;-90
2022/10/17 08:16:06;;;;;;;7.47;4.47;;;18.30;99.90;;;;;;4988384;28;20228;-90
2022/10/17 08:18:33;;;;;;;7.33;5.03;;;18.20;99.90;;;;;;5003893;28;20236;-90
2022/10/17 08:21:00;;;;;;;8.87;4.37;;;18.20;99.90;;;;;;4972217;28;20257;-91
2022/10/17 08:23:27;;;;;;;8.93;4.70;;;18.10;99.90;;;;;;4988068;28;20212;-92
2022/10/17 08:25:52;;;;;;;9.83;5.07;;;18.00;99.90;;;;;;4987846;28;20323;-90
2022/10/17 08:28:18;;;;;;;7.93;4.63;;;18.00;99.90;;;;;;4955713;28;20314;-89
2022/10/17 08:30:44;;;;;;;6.43;4.33;;;18.00;99.90;;;;;;4971683;28;20262;-89
2022/10/17 08:33:09;;;;;;;7.07;4.10;;;18.10;99.90;;;;;;4971880;28;20223;-90
2022/10/17 08:35:35;;;;;;;6.67;4.20;;;18.00;99.90;;;;;;4955850;28;20241;-89
2022/10/17 08:38:01;;;;;;;5.37;3.97;;;18.00;99.90;;;;;;4955470;28;20192;-89
2022/10/17 08:40:29;;;;;;;6.83;4.53;;;18.00;99.90;;;;;;5004453;28;20181;-92
2022/10/17 08:43:21;;;;;;;7.27;4.33;;;18.00;99.90;;;;;;5003876;28;20653;-92
2022/10/17 08:45:59;;;;;;;8.93;5.47;;;18.00;99.90;;;;;;4986671;28;20219;-91
2022/10/17 08:48:27;;;;;;;8.90;5.43;;;18.00;99.90;;;;;;4987404;28;20243;-92
2022/10/17 08:50:58;;;;;;;5.00;4.27;;;17.90;99.90;;;;;;4987335;28;20219;-92
2022/10/17 08:53:28;;;;;;;5.87;4.23;;;17.90;99.90;;;;;;5003061;28;20228;-90
2022/10/17 08:55:54;;;;;;;7.10;5.57;;;17.90;99.90;;;;;;4987864;28;20191;-90
2022/10/17 08:58:22;;;;;;;6.50;5.03;;;17.80;99.90;;;;;;4986249;28;20224;-87
2022/10/17 09:01:23;;;;;;;7.30;4.27;;;17.80;99.90;;;;;;4987184;28;20964;-93
2022/10/17 09:04:14;;;;;;;9.23;4.93;;;17.70;99.90;;;;;;4988396;28;20270;-93
2022/10/17 09:06:42;;;;;;;9.07;5.33;;;17.70;99.90;;;;;;4986941;28;20236;-88
2022/10/17 09:09:14;;;;;;;6.97;4.73;;;17.70;99.90;;;;;;4986119;28;20228;-89
2022/10/17 09:11:43;;;;;;;7.27;4.03;;;17.60;99.90;;;;;;4987779;28;20568;-93
2022/10/17 09:14:27;;;;;;;4.73;3.83;;;17.60;99.90;;;;;;5004217;28;20176;-91
2022/10/17 09:17:07;;;;;;;7.63;5.10;;;17.60;99.90;;;;;;5003651;28;20183;-91
2022/10/17 09:19:42;;;;;;;9.60;4.87;;;17.60;99.90;;;;;;5003786;28;20228;-92
2022/10/17 09:22:17;;;;;;;7.20;3.90;;;17.50;99.90;;;;;;4986304;28;20231;-91
2022/10/17 09:24:48;;;;;;;7.27;4.83;;;17.50;99.90;;;;;;5002884;28;20277;-88
2022/10/17 09:27:40;;;;;;;10.83;4.50;;;17.50;99.90;;;;;;5002605;28;20231;-92
2022/10/17 09:30:18;;;;;;;8.63;5.33;;;17.50;99.90;;;;;;4982870;28;20649;-90
2022/10/17 09:32:46;;;;;;;9.53;5.37;;;17.50;99.90;;;;;;4986194;28;20212;-89
2022/10/17 09:35:15;;;;;;;10.80;5.43;;;17.50;99.90;;;;;;4954992;28;20192;-88
2022/10/17 09:37:41;;;;;;;9.10;4.43;;;17.50;99.90;;;;;;4987504;28;20192;-90
2022/10/17 09:40:15;;;;;;;9.60;5.00;;;17.60;99.90;;;;;;4987496;28;20323;-91
2022/10/17 09:42:43;;;;;;;4.93;3.90;;;17.50;99.90;;;;;;5001981;28;20228;-88
2022/10/17 09:45:27;;;;;;;8.37;5.00;;;17.50;99.90;;;;;;4986964;28;20479;-88
2022/10/17 09:48:00;;;;;;;8.60;5.17;;;17.60;99.90;;;;;;5003003;28;20239;-87
2022/10/17 09:50:30;;;;;;;9.17;5.93;;;17.50;99.90;;;;;;4987474;28;20680;-87
2022/10/17 09:53:00;;;;;;;8.27;5.00;;;17.50;99.90;;;;;;4986769;28;20186;-89
2022/10/17 09:55:42;;;;;;;7.43;4.67;;;17.50;99.90;;;;;;4986519;28;20200;-89
2022/10/17 09:58:09;;;;;;;9.27;5.07;;;17.50;99.90;;;;;;5001858;28;20226;-89
2022/10/17 10:00:37;;;;;;;7.23;5.07;;;17.50;99.90;;;;;;4987027;28;20219;-86
2022/10/17 10:03:22;;;;;;;7.60;5.70;;;17.60;99.90;;;;;;4988004;28;20283;-87
2022/10/17 10:06:11;;;;;;;7.40;4.83;;;17.50;99.90;;;;;;4999493;28;20259;-87
2022/10/17 10:08:48;;;;;;;8.90;5.27;;;17.60;99.90;;;;;;4984111;28;20229;-87
2022/10/17 10:11:14;;;;;;;10.67;5.83;;;17.60;99.90;;;;;;4999990;28;20195;-86
2022/10/17 10:13:48;;;;;;;9.10;4.47;;;17.60;99.90;;;;;;4952524;28;20191;-87
2022/10/17 10:16:31;;;;;;;7.90;5.47;;;17.60;99.90;;;;;;4983823;28;20226;-86
2022/10/17 10:18:57;;;;;;;7.70;5.77;;;17.60;99.90;;;;;;4983689;28;20223;-85
2022/10/17 10:21:25;;;;;;;7.80;4.77;;;17.60;99.90;;;;;;4983989;28;20348;-85
2022/10/17 10:24:12;;;;;;;8.67;5.57;;;17.70;99.90;;;;;;4983617;28;20216;-85
2022/10/17 10:26:45;;;;;;;9.23;5.00;;;17.70;99.90;;;;;;5000507;28;20550;-86
2022/10/17 10:29:31;;;;;;;9.77;5.40;;;17.70;99.90;;;;;;5000290;28;20196;-85
2022/10/17 10:32:24;;;;;;;7.60;5.63;;;17.80;99.90;;;;;;4985750;28;20250;-87
2022/10/17 10:35:33;;;;;;;8.87;5.10;;;17.80;99.90;;;;;;4983700;28;20283;-87
2022/10/17 10:38:02;;;;;;;7.93;5.73;;;17.80;99.90;;;;;;4964871;28;20231;-87
2022/10/17 10:40:46;;;;;;;6.33;4.43;;;17.90;99.90;;;;;;4965219;28;20189;-86
2022/10/17 10:43:41;;;;;;;9.43;4.53;;;17.90;99.90;;;;;;4980225;28;20224;-85
2022/10/17 10:46:18;;;;;;;9.13;6.00;;;18.00;99.90;;;;;;4965628;28;21069;-87
2022/10/17 10:49:02;;;;;;;5.57;4.60;;;18.00;99.90;;;;;;4979160;28;20266;-84
2022/10/17 10:51:48;;;;;;;9.57;5.10;;;18.10;99.90;;;;;;4971934;28;20278;-85
2022/10/17 10:54:26;;;;;;;7.93;5.07;;;18.20;99.90;;;;;;4979607;28;20227;-86
2022/10/17 10:56:55;;;;;;;10.70;5.53;;;18.20;99.90;;;;;;4984908;28;20216;-85
2022/10/17 10:59:45;;;;;;;9.03;5.83;;;18.30;99.90;;;;;;4968611;28;20776;-87
2022/10/17 11:02:14;;;;;;;6.30;4.67;;;18.30;99.90;;;;;;4993661;28;20180;-85
2022/10/17 11:05:03;;;;;;;10.70;5.70;;;18.30;99.90;;;;;;4986165;28;20214;-85
2022/10/17 11:07:36;;;;;;;7.00;4.33;;;18.30;99.90;;;;;;4983977;28;20227;-85
2022/10/17 11:10:14;;;;;;;6.07;4.77;;;18.40;99.90;;;;;;4985114;28;20220;-85
2022/10/17 11:13:04;;;;;;;7.00;4.80;;;18.30;99.90;;;;;;4985054;28;20278;-85
2022/10/17 11:15:41;;;;;;;6.27;5.13;;;18.20;99.90;;;;;;4983458;28;20224;-86
2022/10/17 11:18:25;;;;;;;8.17;4.47;;;18.20;99.90;;;;;;4984863;28;20319;-87
2022/10/17 11:20:59;;;;;;;8.57;5.00;;;18.30;99.90;;;;;;4997428;28;20208;-86
2022/10/17 11:23:55;;;;;;;11.20;5.13;;;18.30;99.90;;;;;;4972980;28;20238;-86
2022/10/17 11:26:27;;;;;;;7.10;4.17;;;18.30;99.90;;;;;;4989324;28;20302;-85
2022/10/17 11:28:55;;;;;;;8.77;5.57;;;18.40;99.90;;;;;;4989396;28;20180;-85
2022/10/17 11:31:25;;;;;;;11.17;6.00;;;18.40;99.90;;;;;;5012561;28;20226;-84
2022/10/17 11:33:58;;;;;;;6.23;5.03;;;18.50;99.90;;;;;;4990097;28;20227;-84
2022/10/17 11:36:32;;;;;;;11.10;7.00;;;18.60;99.90;;;;;;4987410;28;20685;-87
2022/10/17 11:39:10;;;;;;;9.77;5.57;;;18.60;99.90;;;;;;4989247;28;20306;-85
2022/10/17 11:41:40;;;;;;;11.33;6.27;;;18.60;99.90;;;;;;4995663;28;20224;-85
2022/10/17 11:44:35;;;;;;;7.83;5.33;;;18.70;99.90;;;;;;5013531;28;20270;-88
2022/10/17 11:47:30;;;;;;;7.43;5.03;;;18.70;99.90;;;;;;4987686;28;20270;-86
2022/10/17 11:50:15;;;;;;;7.17;5.30;;;18.70;99.90;;;;;;5003489;28;20186;-86
2022/10/17 11:52:45;;;;;;;9.10;6.33;;;18.60;99.90;;;;;;4967711;28;20250;-86
2022/10/17 11:55:28;;;;;;;6.50;4.80;;;18.50;99.90;;;;;;4984361;28;20216;-85
2022/10/17 11:58:20;;;;;;;5.27;3.93;;;18.40;99.90;;;;;;4983953;28;20631;-85
2022/10/17 12:01:10;;;;;;;6.70;4.87;;;18.20;99.90;;;;;;4967800;28;20327;-87
2022/10/17 12:03:42;;;;;;;5.90;3.73;;;18.20;99.90;;;;;;4968119;28;20284;-88
2022/10/17 12:06:15;;;;;;;8.27;4.03;;;18.10;99.90;;;;;;4977415;28;20234;-87
2022/10/17 12:08:46;;;;;;;6.27;4.03;;;18.10;99.90;;;;;;4981841;28;20220;-87
2022/10/17 12:11:41;;;;;;;6.10;4.00;;;18.00;99.90;;;;;;4985882;28;20619;-85
2022/10/17 12:14:35;;;;;;;6.10;4.23;;;18.00;99.90;;;;;;5010888;28;20624;-86
2022/10/17 12:17:02;;;;;;;7.50;4.67;;;18.00;99.90;;;;;;4995238;28;20191;-88
2022/10/17 12:19:31;;;;;;;5.57;3.83;;;18.00;99.90;;;;;;4987409;28;20212;-86
2022/10/17 12:21:59;;;;;;;5.50;3.97;;;18.00;99.90;;;;;;4985991;28;20227;-86
2022/10/17 12:24:53;;;;;;;5.53;4.13;;;18.00;99.90;;;;;;4994066;28;20270;-88
2022/10/17 12:27:44;;;;;;;4.77;3.47;;;17.90;99.90;;;;;;4989637;28;20227;-88
2022/10/17 12:30:25;;;;;;;5.93;3.07;;;17.90;99.90;;;;;;4988743;28;20220;-82
2022/10/17 12:33:10;;;;;;;4.87;3.90;;;17.90;99.90;;;;;;4993548;28;20300;-85
2022/10/17 12:35:37;;;;;;;5.97;3.70;;;18.00;99.90;;;;;;4998279;28;20277;-84
2022/10/17 12:38:16;;;;;;;5.30;3.23;;;18.00;99.90;;;;;;4988782;28;20200;-84
2022/10/17 12:40:48;;;;;;;6.90;3.20;;;18.00;99.90;;;;;;4989612;28;20565;-84
2022/10/17 12:43:14;;;;;;;8.57;3.13;;;18.10;99.90;;;;;;5012166;28;20265;-83
2022/10/17 12:45:47;;;;;;;7.33;3.33;;;18.20;99.90;;;;;;5021416;28;20219;-89
2022/10/17 12:48:32;;;;;;;5.57;3.33;;;18.30;99.90;;;;;;5000496;28;20245;-85
2022/10/17 12:51:20;;;;;;;7.07;3.00;;;18.30;99.90;;;;;;4986899;28;20219;-85
2022/10/17 12:53:51;;;;;;;4.70;2.90;;;18.30;99.90;;;;;;4987738;28;20211;-87
2022/10/17 12:56:20;;;;;;;5.07;2.70;;;18.50;99.90;;;;;;4987916;28;20311;-86
2022/10/17 12:58:48;;;;;;;4.30;3.47;;;18.40;99.90;;;;;;4988349;28;20216;-86
2022/10/17 13:01:21;;;;;;;5.53;3.10;;;18.40;99.90;;;;;;4994722;28;20475;-83
2022/10/17 13:03:51;;;;;;;6.23;4.23;;;18.40;99.90;;;;;;4990294;28;20230;-86
2022/10/17 13:06:30;;;;;;;4.93;3.27;;;18.40;99.90;;;;;;4964833;28;20245;-86
2022/10/17 13:09:01;;;;;;;4.77;2.90;;;18.40;99.90;;;;;;4995878;28;20219;-85